sensor_id;sensor_type;location;lat;lon;timestamp;pressure;altitude;pressure_sealevel;temperature;humidity
70437;BME280;57877;39.750;-104.894;2023-03-20T00:01:42;83170.88;;;7.98;11.38
70437;BME280;57877;39.750;-104.894;2023-03-20T00:04:09;83168.46;;;7.23;12.06
70437;BME280;57877;39.750;-104.894;2023-03-20T00:06:34;83170.31;;;8.43;11.43
70437;BME280;57877;39.750;-104.894;2023-03-20T00:09:00;83169.97;;;7.14;11.81
70437;BME280;57877;39.750;-104.894;2023-03-20T00:11:28;83168.63;;;7.10;12.01
70437;BME280;57877;39.750;-104.894;2023-03-20T00:14:03;83167.51;;;8.93;10.93
70437;BME280;57877;39.750;-104.894;2023-03-20T00:16:26;83165.32;;;9.92;10.65
70437;BME280;57877;39.750;-104.894;2023-03-20T00:18:44;83168.75;;;7.57;11.59
70437;BME280;57877;39.750;-104.894;2023-03-20T00:21:11;83168.41;;;7.82;11.77
70437;BME280;57877;39.750;-104.894;2023-03-20T00:23:36;83164.35;;;8.91;11.14
70437;BME280;57877;39.750;-104.894;2023-03-20T00:26:02;83160.91;;;9.99;10.59
70437;BME280;57877;39.750;-104.894;2023-03-20T00:28:35;83161.44;;;10.98;9.95
70437;BME280;57877;39.750;-104.894;2023-03-20T00:30:54;83163.72;;;9.28;10.33
70437;BME280;57877;39.750;-104.894;2023-03-20T00:33:20;83162.79;;;9.39;10.57
70437;BME280;57877;39.750;-104.894;2023-03-20T00:35:46;83162.95;;;10.71;9.90
70437;BME280;57877;39.750;-104.894;2023-03-20T00:38:12;83161.37;;;9.39;10.68
70437;BME280;57877;39.750;-104.894;2023-03-20T00:40:37;83162.57;;;8.54;11.48
70437;BME280;57877;39.750;-104.894;2023-03-20T00:43:03;83160.86;;;10.91;10.17
70437;BME280;57877;39.750;-104.894;2023-03-20T00:45:30;83163.42;;;8.33;11.48
70437;BME280;57877;39.750;-104.894;2023-03-20T00:47:55;83158.34;;;7.01;12.76
70437;BME280;57877;39.750;-104.894;2023-03-20T00:50:22;83153.28;;;8.05;12.29
70437;BME280;57877;39.750;-104.894;2023-03-20T00:52:47;83150.54;;;8.08;12.37
70437;BME280;57877;39.750;-104.894;2023-03-20T00:55:12;83151.85;;;7.24;13.05
70437;BME280;57877;39.750;-104.894;2023-03-20T00:57:42;83149.35;;;7.57;12.65
70437;BME280;57877;39.750;-104.894;2023-03-20T01:00:12;83147.58;;;7.63;12.33
70437;BME280;57877;39.750;-104.894;2023-03-20T01:02:31;83147.38;;;6.89;12.52
70437;BME280;57877;39.750;-104.894;2023-03-20T01:04:57;83145.62;;;7.35;12.51
70437;BME280;57877;39.750;-104.894;2023-03-20T01:07:22;83142.45;;;5.90;13.09
70437;BME280;57877;39.750;-104.894;2023-03-20T01:09:49;83144.59;;;6.97;12.67
70437;BME280;57877;39.750;-104.894;2023-03-20T01:12:15;83138.95;;;6.30;13.23
70437;BME280;57877;39.750;-104.894;2023-03-20T01:14:40;83141.22;;;6.07;13.52
70437;BME280;57877;39.750;-104.894;2023-03-20T01:17:09;83147.06;;;6.20;13.60
70437;BME280;57877;39.750;-104.894;2023-03-20T01:19:32;83143.91;;;6.51;13.59
70437;BME280;57877;39.750;-104.894;2023-03-20T01:21:58;83145.44;;;6.41;13.42
70437;BME280;57877;39.750;-104.894;2023-03-20T01:24:24;83146.52;;;6.27;13.67
70437;BME280;57877;39.750;-104.894;2023-03-20T01:26:50;83153.61;;;7.48;12.69
70437;BME280;57877;39.750;-104.894;2023-03-20T01:29:20;83150.74;;;5.48;14.25
70437;BME280;57877;39.750;-104.894;2023-03-20T01:31:42;83150.30;;;5.78;14.06
70437;BME280;57877;39.750;-104.894;2023-03-20T01:34:09;83148.04;;;5.42;14.33
70437;BME280;57877;39.750;-104.894;2023-03-20T01:36:36;83154.67;;;6.47;13.69
70437;BME280;57877;39.750;-104.894;2023-03-20T01:39:00;83154.49;;;7.72;12.87
70437;BME280;57877;39.750;-104.894;2023-03-20T01:41:27;83153.22;;;5.72;14.31
70437;BME280;57877;39.750;-104.894;2023-03-20T01:43:52;83154.69;;;5.30;14.49
70437;BME280;57877;39.750;-104.894;2023-03-20T01:46:21;83156.78;;;6.28;14.33
70437;BME280;57877;39.750;-104.894;2023-03-20T01:51:10;83160.29;;;6.78;13.71
70437;BME280;57877;39.750;-104.894;2023-03-20T01:53:36;83160.64;;;5.49;14.34
70437;BME280;57877;39.750;-104.894;2023-03-20T01:56:02;83159.73;;;6.53;13.82
70437;BME280;57877;39.750;-104.894;2023-03-20T01:58:31;83158.90;;;6.54;13.92
70437;BME280;57877;39.750;-104.894;2023-03-20T02:00:54;83155.81;;;5.58;14.36
70437;BME280;57877;39.750;-104.894;2023-03-20T02:03:20;83157.98;;;5.74;14.54
70437;BME280;57877;39.750;-104.894;2023-03-20T02:05:46;83160.47;;;8.40;12.83
70437;BME280;57877;39.750;-104.894;2023-03-20T02:08:18;83159.67;;;6.54;13.93
70437;BME280;57877;39.750;-104.894;2023-03-20T02:10:38;83159.78;;;6.38;13.63
70437;BME280;57877;39.750;-104.894;2023-03-20T02:13:04;83160.76;;;7.30;13.44
70437;BME280;57877;39.750;-104.894;2023-03-20T02:15:30;83160.58;;;5.55;14.31
70437;BME280;57877;39.750;-104.894;2023-03-20T02:17:56;83162.80;;;6.34;14.14
70437;BME280;57877;39.750;-104.894;2023-03-20T02:20:32;83165.44;;;6.09;14.21
70437;BME280;57877;39.750;-104.894;2023-03-20T02:23:04;83167.80;;;5.22;14.58
70437;BME280;57877;39.750;-104.894;2023-03-20T02:25:24;83168.03;;;6.84;13.64
70437;BME280;57877;39.750;-104.894;2023-03-20T02:27:48;83169.81;;;8.06;12.95
70437;BME280;57877;39.750;-104.894;2023-03-20T02:39:57;83173.09;;;5.81;14.54
70437;BME280;57877;39.750;-104.894;2023-03-20T02:42:21;83175.82;;;5.88;14.56
70437;BME280;57877;39.750;-104.894;2023-03-20T02:44:49;83174.46;;;6.13;14.79
70437;BME280;57877;39.750;-104.894;2023-03-20T02:47:13;83170.73;;;5.35;15.10
70437;BME280;57877;39.750;-104.894;2023-03-20T02:49:50;83172.74;;;5.20;15.42
70437;BME280;57877;39.750;-104.894;2023-03-20T02:52:04;83172.98;;;5.55;15.17
70437;BME280;57877;39.750;-104.894;2023-03-20T02:54:30;83174.29;;;5.96;15.04
70437;BME280;57877;39.750;-104.894;2023-03-20T02:56:58;83173.69;;;6.82;14.28
70437;BME280;57877;39.750;-104.894;2023-03-20T02:59:25;83173.20;;;6.01;14.91
70437;BME280;57877;39.750;-104.894;2023-03-20T03:01:49;83177.07;;;6.22;14.53
70437;BME280;57877;39.750;-104.894;2023-03-20T03:04:13;83180.11;;;6.04;14.69
70437;BME280;57877;39.750;-104.894;2023-03-20T03:06:38;83184.35;;;6.90;13.98
70437;BME280;57877;39.750;-104.894;2023-03-20T03:09:05;83188.81;;;7.76;13.57
70437;BME280;57877;39.750;-104.894;2023-03-20T03:11:28;83188.49;;;8.69;12.81
70437;BME280;57877;39.750;-104.894;2023-03-20T03:13:55;83189.19;;;6.44;14.04
70437;BME280;57877;39.750;-104.894;2023-03-20T03:16:25;83192.80;;;7.68;13.68
70437;BME280;57877;39.750;-104.894;2023-03-20T03:18:46;83191.57;;;7.47;13.54
70437;BME280;57877;39.750;-104.894;2023-03-20T03:21:13;83190.02;;;5.89;14.57
70437;BME280;57877;39.750;-104.894;2023-03-20T03:23:42;83193.44;;;6.62;14.37
70437;BME280;57877;39.750;-104.894;2023-03-20T03:26:05;83192.43;;;7.92;13.50
70437;BME280;57877;39.750;-104.894;2023-03-20T03:28:32;83191.85;;;6.89;13.94
70437;BME280;57877;39.750;-104.894;2023-03-20T03:30:57;83189.74;;;6.95;14.21
70437;BME280;57877;39.750;-104.894;2023-03-20T03:33:24;83190.52;;;7.80;13.63
70437;BME280;57877;39.750;-104.894;2023-03-20T03:35:49;83189.33;;;6.55;14.31
70437;BME280;57877;39.750;-104.894;2023-03-20T03:38:25;83189.68;;;8.39;13.14
70437;BME280;57877;39.750;-104.894;2023-03-20T03:40:43;83187.94;;;8.98;12.40
70437;BME280;57877;39.750;-104.894;2023-03-20T03:43:08;83187.05;;;9.22;12.62
70437;BME280;57877;39.750;-104.894;2023-03-20T03:45:34;83186.77;;;9.31;12.45
70437;BME280;57877;39.750;-104.894;2023-03-20T03:48:01;83187.45;;;9.58;12.12
70437;BME280;57877;39.750;-104.894;2023-03-20T03:50:27;83188.46;;;9.87;12.05
70437;BME280;57877;39.750;-104.894;2023-03-20T03:52:50;83193.14;;;9.49;12.26
70437;BME280;57877;39.750;-104.894;2023-03-20T03:55:20;83191.22;;;9.66;12.25
70437;BME280;57877;39.750;-104.894;2023-03-20T03:57:43;83194.14;;;9.29;12.70
70437;BME280;57877;39.750;-104.894;2023-03-20T04:00:09;83192.46;;;9.59;12.28
70437;BME280;57877;39.750;-104.894;2023-03-20T04:02:33;83187.41;;;7.68;13.28
70437;BME280;57877;39.750;-104.894;2023-03-20T04:05:00;83190.66;;;6.96;13.75
70437;BME280;57877;39.750;-104.894;2023-03-20T04:07:27;83192.78;;;7.10;14.12
70437;BME280;57877;39.750;-104.894;2023-03-20T04:09:51;83190.81;;;8.60;13.11
70437;BME280;57877;39.750;-104.894;2023-03-20T04:14:43;83191.03;;;8.20;13.11
70437;BME280;57877;39.750;-104.894;2023-03-20T04:17:09;83189.71;;;7.75;13.42
70437;BME280;57877;39.750;-104.894;2023-03-20T04:19:35;83188.62;;;7.67;13.88
70437;BME280;57877;39.750;-104.894;2023-03-20T04:22:01;83186.73;;;7.60;13.96
70437;BME280;57877;39.750;-104.894;2023-03-20T04:24:27;83188.89;;;8.64;12.76
70437;BME280;57877;39.750;-104.894;2023-03-20T04:26:53;83189.46;;;8.06;13.54
70437;BME280;57877;39.750;-104.894;2023-03-20T04:29:19;83185.32;;;8.98;12.86
70437;BME280;57877;39.750;-104.894;2023-03-20T04:31:45;83185.38;;;8.93;12.97
70437;BME280;57877;39.750;-104.894;2023-03-20T04:34:11;83183.95;;;8.89;13.23
70437;BME280;57877;39.750;-104.894;2023-03-20T04:36:37;83182.65;;;8.85;12.98
70437;BME280;57877;39.750;-104.894;2023-03-20T04:39:03;83178.02;;;8.94;12.93
70437;BME280;57877;39.750;-104.894;2023-03-20T04:41:29;83177.26;;;8.96;12.96
70437;BME280;57877;39.750;-104.894;2023-03-20T04:43:54;83176.86;;;8.96;13.16
70437;BME280;57877;39.750;-104.894;2023-03-20T04:46:20;83176.50;;;8.58;13.52
70437;BME280;57877;39.750;-104.894;2023-03-20T04:48:46;83175.13;;;9.39;13.00
70437;BME280;57877;39.750;-104.894;2023-03-20T04:51:12;83175.37;;;8.31;13.76
70437;BME280;57877;39.750;-104.894;2023-03-20T04:53:38;83173.71;;;9.05;13.22
70437;BME280;57877;39.750;-104.894;2023-03-20T04:56:05;83171.67;;;8.76;13.68
70437;BME280;57877;39.750;-104.894;2023-03-20T04:58:29;83171.54;;;8.57;13.87
70437;BME280;57877;39.750;-104.894;2023-03-20T05:00:55;83170.91;;;9.30;13.20
70437;BME280;57877;39.750;-104.894;2023-03-20T05:03:20;83163.26;;;8.78;13.18
70437;BME280;57877;39.750;-104.894;2023-03-20T05:05:46;83166.33;;;6.42;15.30
70437;BME280;57877;39.750;-104.894;2023-03-20T05:08:12;83164.84;;;6.47;15.71
70437;BME280;57877;39.750;-104.894;2023-03-20T05:10:37;83164.69;;;7.69;14.88
70437;BME280;57877;39.750;-104.894;2023-03-20T05:13:03;83162.17;;;6.39;15.52
70437;BME280;57877;39.750;-104.894;2023-03-20T05:15:29;83161.22;;;5.75;16.39
70437;BME280;57877;39.750;-104.894;2023-03-20T05:17:54;83159.26;;;6.24;15.89
70437;BME280;57877;39.750;-104.894;2023-03-20T05:20:20;83157.76;;;7.10;15.22
70437;BME280;57877;39.750;-104.894;2023-03-20T05:22:49;83156.92;;;6.54;15.79
70437;BME280;57877;39.750;-104.894;2023-03-20T05:25:12;83156.12;;;6.66;15.85
70437;BME280;57877;39.750;-104.894;2023-03-20T05:27:38;83150.05;;;5.02;16.99
70437;BME280;57877;39.750;-104.894;2023-03-20T05:30:04;83151.26;;;5.91;16.76
70437;BME280;57877;39.750;-104.894;2023-03-20T05:32:28;83147.41;;;7.42;15.25
70437;BME280;57877;39.750;-104.894;2023-03-20T05:34:54;83145.88;;;7.38;15.44
70437;BME280;57877;39.750;-104.894;2023-03-20T05:37:20;83149.45;;;7.01;15.45
70437;BME280;57877;39.750;-104.894;2023-03-20T05:39:46;83148.24;;;7.82;15.71
70437;BME280;57877;39.750;-104.894;2023-03-20T05:42:12;83148.09;;;7.48;15.20
70437;BME280;57877;39.750;-104.894;2023-03-20T05:44:38;83147.02;;;7.88;15.04
70437;BME280;57877;39.750;-104.894;2023-03-20T05:47:04;83146.63;;;7.58;15.35
70437;BME280;57877;39.750;-104.894;2023-03-20T05:49:30;83144.53;;;7.77;15.01
70437;BME280;57877;39.750;-104.894;2023-03-20T05:51:56;83143.36;;;8.01;15.17
70437;BME280;57877;39.750;-104.894;2023-03-20T05:54:22;83139.27;;;7.28;15.08
70437;BME280;57877;39.750;-104.894;2023-03-20T05:56:48;83136.95;;;5.00;17.75
70437;BME280;57877;39.750;-104.894;2023-03-20T05:59:14;83136.17;;;5.42;17.43
70437;BME280;57877;39.750;-104.894;2023-03-20T06:01:40;83134.44;;;5.41;17.29
70437;BME280;57877;39.750;-104.894;2023-03-20T06:04:05;83136.35;;;7.10;15.90
70437;BME280;57877;39.750;-104.894;2023-03-20T06:06:31;83136.21;;;7.29;15.69
70437;BME280;57877;39.750;-104.894;2023-03-20T06:08:56;83134.45;;;7.62;16.01
70437;BME280;57877;39.750;-104.894;2023-03-20T06:11:22;83133.29;;;6.99;16.97
70437;BME280;57877;39.750;-104.894;2023-03-20T06:13:48;83132.24;;;6.45;17.32
70437;BME280;57877;39.750;-104.894;2023-03-20T06:16:14;83126.72;;;6.09;17.78
70437;BME280;57877;39.750;-104.894;2023-03-20T06:18:40;83121.82;;;5.97;17.43
70437;BME280;57877;39.750;-104.894;2023-03-20T06:21:07;83121.97;;;6.23;17.05
70437;BME280;57877;39.750;-104.894;2023-03-20T06:23:33;83122.16;;;5.99;16.99
70437;BME280;57877;39.750;-104.894;2023-03-20T06:25:57;83121.96;;;6.05;16.48
70437;BME280;57877;39.750;-104.894;2023-03-20T06:28:22;83119.37;;;6.09;16.33
70437;BME280;57877;39.750;-104.894;2023-03-20T06:30:51;83119.02;;;6.49;15.92
70437;BME280;57877;39.750;-104.894;2023-03-20T06:33:13;83117.91;;;6.81;15.83
70437;BME280;57877;39.750;-104.894;2023-03-20T06:35:39;83116.09;;;6.59;16.02
70437;BME280;57877;39.750;-104.894;2023-03-20T06:38:05;83115.88;;;6.21;16.07
70437;BME280;57877;39.750;-104.894;2023-03-20T06:40:31;83111.90;;;6.35;15.97
70437;BME280;57877;39.750;-104.894;2023-03-20T06:42:57;83110.26;;;6.42;15.84
70437;BME280;57877;39.750;-104.894;2023-03-20T06:45:24;83112.73;;;6.87;15.75
70437;BME280;57877;39.750;-104.894;2023-03-20T06:47:50;83113.66;;;6.13;15.84
70437;BME280;57877;39.750;-104.894;2023-03-20T06:50:16;83112.61;;;5.06;17.29
70437;BME280;57877;39.750;-104.894;2023-03-20T06:52:41;83113.06;;;6.19;16.33
70437;BME280;57877;39.750;-104.894;2023-03-20T06:55:08;83113.02;;;6.48;16.26
70437;BME280;57877;39.750;-104.894;2023-03-20T06:57:33;83112.83;;;5.90;16.31
70437;BME280;57877;39.750;-104.894;2023-03-20T06:59:59;83103.29;;;5.84;16.72
70437;BME280;57877;39.750;-104.894;2023-03-20T07:02:25;83103.57;;;6.44;16.49
70437;BME280;57877;39.750;-104.894;2023-03-20T07:04:51;83100.02;;;6.18;16.38
70437;BME280;57877;39.750;-104.894;2023-03-20T07:07:17;83098.05;;;6.13;16.55
70437;BME280;57877;39.750;-104.894;2023-03-20T07:09:43;83095.06;;;5.95;16.82
70437;BME280;57877;39.750;-104.894;2023-03-20T07:12:11;83091.46;;;4.24;18.30
70437;BME280;57877;39.750;-104.894;2023-03-20T07:14:35;83091.52;;;2.50;20.00
70437;BME280;57877;39.750;-104.894;2023-03-20T07:17:01;83092.11;;;5.53;17.80
70437;BME280;57877;39.750;-104.894;2023-03-20T07:24:18;83090.84;;;5.69;16.97
70437;BME280;57877;39.750;-104.894;2023-03-20T07:26:44;83087.85;;;2.66;20.38
70437;BME280;57877;39.750;-104.894;2023-03-20T07:29:10;83088.22;;;3.56;19.53
70437;BME280;57877;39.750;-104.894;2023-03-20T07:31:36;83083.13;;;2.64;20.61
70437;BME280;57877;39.750;-104.894;2023-03-20T07:34:02;83082.26;;;2.91;19.92
70437;BME280;57877;39.750;-104.894;2023-03-20T07:36:28;83085.69;;;1.85;21.35
70437;BME280;57877;39.750;-104.894;2023-03-20T07:38:54;83077.87;;;2.72;20.51
70437;BME280;57877;39.750;-104.894;2023-03-20T07:41:20;83074.99;;;4.36;18.74
70437;BME280;57877;39.750;-104.894;2023-03-20T07:43:46;83076.56;;;4.30;18.81
70437;BME280;57877;39.750;-104.894;2023-03-20T07:46:12;83076.73;;;4.08;18.96
70437;BME280;57877;39.750;-104.894;2023-03-20T07:48:38;83074.09;;;2.23;20.50
70437;BME280;57877;39.750;-104.894;2023-03-20T07:51:04;83075.23;;;4.84;18.45
70437;BME280;57877;39.750;-104.894;2023-03-20T07:53:30;83072.00;;;5.08;18.11
70437;BME280;57877;39.750;-104.894;2023-03-20T07:55:55;83067.39;;;5.36;17.85
70437;BME280;57877;39.750;-104.894;2023-03-20T07:58:21;83067.97;;;5.20;17.67
70437;BME280;57877;39.750;-104.894;2023-03-20T08:00:48;83063.39;;;5.60;17.71
70437;BME280;57877;39.750;-104.894;2023-03-20T08:03:13;83063.91;;;3.54;19.31
70437;BME280;57877;39.750;-104.894;2023-03-20T08:05:39;83063.85;;;3.80;19.76
70437;BME280;57877;39.750;-104.894;2023-03-20T08:08:05;83058.70;;;4.24;19.41
70437;BME280;57877;39.750;-104.894;2023-03-20T08:10:31;83052.89;;;4.50;18.90
70437;BME280;57877;39.750;-104.894;2023-03-20T08:12:57;83051.49;;;4.67;19.11
70437;BME280;57877;39.750;-104.894;2023-03-20T08:15:23;83051.67;;;4.60;18.78
70437;BME280;57877;39.750;-104.894;2023-03-20T08:17:49;83053.59;;;3.31;19.96
70437;BME280;57877;39.750;-104.894;2023-03-20T08:20:15;83053.18;;;2.63;20.76
70437;BME280;57877;39.750;-104.894;2023-03-20T08:22:42;83055.33;;;2.41;21.46
70437;BME280;57877;39.750;-104.894;2023-03-20T08:25:08;83053.27;;;2.50;21.46
70437;BME280;57877;39.750;-104.894;2023-03-20T08:27:33;83055.26;;;4.11;20.16
70437;BME280;57877;39.750;-104.894;2023-03-20T08:29:59;83051.89;;;2.66;21.06
70437;BME280;57877;39.750;-104.894;2023-03-20T08:32:25;83049.29;;;3.46;20.34
70437;BME280;57877;39.750;-104.894;2023-03-20T08:34:51;83041.25;;;2.47;21.22
70437;BME280;57877;39.750;-104.894;2023-03-20T08:37:17;83035.64;;;3.81;19.72
70437;BME280;57877;39.750;-104.894;2023-03-20T08:39:43;83033.94;;;4.67;19.06
70437;BME280;57877;39.750;-104.894;2023-03-20T08:42:09;83030.58;;;3.04;20.47
70437;BME280;57877;39.750;-104.894;2023-03-20T08:44:35;83027.50;;;3.78;20.13
70437;BME280;57877;39.750;-104.894;2023-03-20T08:47:01;83024.49;;;4.43;19.30
70437;BME280;57877;39.750;-104.894;2023-03-20T08:49:27;83020.69;;;4.85;19.46
70437;BME280;57877;39.750;-104.894;2023-03-20T08:51:53;83014.37;;;3.45;20.10
70437;BME280;57877;39.750;-104.894;2023-03-20T08:54:19;83016.21;;;4.56;18.94
70437;BME280;57877;39.750;-104.894;2023-03-20T08:56:45;83012.33;;;5.08;18.68
70437;BME280;57877;39.750;-104.894;2023-03-20T08:59:11;83008.76;;;5.30;18.52
70437;BME280;57877;39.750;-104.894;2023-03-20T09:01:37;83004.69;;;5.04;18.73
70437;BME280;57877;39.750;-104.894;2023-03-20T09:04:03;83004.21;;;5.15;19.10
70437;BME280;57877;39.750;-104.894;2023-03-20T09:06:29;82995.62;;;4.52;19.38
70437;BME280;57877;39.750;-104.894;2023-03-20T09:08:55;82993.31;;;4.74;18.78
70437;BME280;57877;39.750;-104.894;2023-03-20T09:11:21;82985.37;;;4.88;19.66
70437;BME280;57877;39.750;-104.894;2023-03-20T09:13:47;82986.64;;;4.39;19.56
70437;BME280;57877;39.750;-104.894;2023-03-20T09:16:13;82982.70;;;4.74;19.15
70437;BME280;57877;39.750;-104.894;2023-03-20T09:18:39;82980.38;;;4.38;18.85
70437;BME280;57877;39.750;-104.894;2023-03-20T09:21:04;82972.85;;;4.76;19.52
70437;BME280;57877;39.750;-104.894;2023-03-20T09:23:30;82969.29;;;4.33;20.24
70437;BME280;57877;39.750;-104.894;2023-03-20T09:25:56;82962.81;;;4.06;19.79
70437;BME280;57877;39.750;-104.894;2023-03-20T09:28:22;82958.06;;;3.79;20.35
70437;BME280;57877;39.750;-104.894;2023-03-20T09:30:48;82951.74;;;3.44;20.72
70437;BME280;57877;39.750;-104.894;2023-03-20T09:33:14;82948.14;;;3.66;20.60
70437;BME280;57877;39.750;-104.894;2023-03-20T09:35:39;82944.31;;;3.12;20.83
70437;BME280;57877;39.750;-104.894;2023-03-20T09:38:04;82942.66;;;3.37;20.77
70437;BME280;57877;39.750;-104.894;2023-03-20T09:40:35;82940.11;;;3.64;20.60
70437;BME280;57877;39.750;-104.894;2023-03-20T09:43:01;82938.25;;;3.72;20.04
70437;BME280;57877;39.750;-104.894;2023-03-20T09:45:23;82936.22;;;3.28;20.47
70437;BME280;57877;39.750;-104.894;2023-03-20T09:47:52;82935.81;;;3.54;20.21
70437;BME280;57877;39.750;-104.894;2023-03-20T09:50:24;82933.41;;;3.70;20.67
70437;BME280;57877;39.750;-104.894;2023-03-20T09:52:39;82931.17;;;3.65;20.67
70437;BME280;57877;39.750;-104.894;2023-03-20T09:55:07;82930.26;;;4.17;20.05
70437;BME280;57877;39.750;-104.894;2023-03-20T09:57:34;82929.43;;;3.63;20.56
70437;BME280;57877;39.750;-104.894;2023-03-20T09:59:58;82927.50;;;4.13;19.85
70437;BME280;57877;39.750;-104.894;2023-03-20T10:02:28;82925.50;;;3.84;20.29
70437;BME280;57877;39.750;-104.894;2023-03-20T10:04:48;82919.86;;;3.84;20.40
70437;BME280;57877;39.750;-104.894;2023-03-20T10:07:21;82917.56;;;3.92;20.45
70437;BME280;57877;39.750;-104.894;2023-03-20T10:09:39;82914.18;;;4.03;19.87
70437;BME280;57877;39.750;-104.894;2023-03-20T10:12:20;82912.67;;;2.56;21.45
70437;BME280;57877;39.750;-104.894;2023-03-20T10:14:37;82914.69;;;0.49;23.86
70437;BME280;57877;39.750;-104.894;2023-03-20T10:17:11;82903.13;;;1.93;23.13
70437;BME280;57877;39.750;-104.894;2023-03-20T10:19:28;82897.08;;;3.31;21.17
70437;BME280;57877;39.750;-104.894;2023-03-20T10:21:54;82892.04;;;3.28;21.23
70437;BME280;57877;39.750;-104.894;2023-03-20T10:24:18;82888.84;;;3.35;21.27
70437;BME280;57877;39.750;-104.894;2023-03-20T10:26:41;82887.04;;;3.15;21.10
70437;BME280;57877;39.750;-104.894;2023-03-20T10:29:14;82886.62;;;2.87;21.44
70437;BME280;57877;39.750;-104.894;2023-03-20T10:31:42;82885.06;;;1.78;22.69
70437;BME280;57877;39.750;-104.894;2023-03-20T10:34:10;82883.61;;;3.17;21.05
70437;BME280;57877;39.750;-104.894;2023-03-20T10:38:55;82885.86;;;3.59;20.60
70437;BME280;57877;39.750;-104.894;2023-03-20T10:41:17;82883.98;;;2.58;22.15
70437;BME280;57877;39.750;-104.894;2023-03-20T10:43:43;82883.21;;;3.53;20.91
70437;BME280;57877;39.750;-104.894;2023-03-20T10:46:08;82882.50;;;2.25;22.20
70437;BME280;57877;39.750;-104.894;2023-03-20T10:48:36;82880.89;;;3.73;20.44
70437;BME280;57877;39.750;-104.894;2023-03-20T10:51:00;82879.48;;;3.74;20.93
70437;BME280;57877;39.750;-104.894;2023-03-20T10:53:28;82878.51;;;3.49;20.86
70437;BME280;57877;39.750;-104.894;2023-03-20T10:55:49;82878.82;;;3.43;21.01
70437;BME280;57877;39.750;-104.894;2023-03-20T10:58:18;82878.83;;;3.38;20.77
70437;BME280;57877;39.750;-104.894;2023-03-20T11:00:41;82875.60;;;3.24;20.98
70437;BME280;57877;39.750;-104.894;2023-03-20T11:03:09;82870.33;;;3.23;21.03
70437;BME280;57877;39.750;-104.894;2023-03-20T11:05:33;82867.78;;;3.17;21.26
70437;BME280;57877;39.750;-104.894;2023-03-20T11:08:02;82866.48;;;3.24;21.34
70437;BME280;57877;39.750;-104.894;2023-03-20T11:10:26;82865.39;;;2.92;21.86
70437;BME280;57877;39.750;-104.894;2023-03-20T11:12:49;82870.09;;;2.38;23.05
70437;BME280;57877;39.750;-104.894;2023-03-20T11:15:21;82868.12;;;2.46;23.16
70437;BME280;57877;39.750;-104.894;2023-03-20T11:17:37;82870.77;;;2.63;22.73
70437;BME280;57877;39.750;-104.894;2023-03-20T11:20:04;82869.84;;;2.58;21.93
70437;BME280;57877;39.750;-104.894;2023-03-20T11:22:29;82870.76;;;3.22;21.83
70437;BME280;57877;39.750;-104.894;2023-03-20T11:24:57;82867.19;;;2.81;21.81
70437;BME280;57877;39.750;-104.894;2023-03-20T11:27:25;82867.25;;;3.37;20.99
70437;BME280;57877;39.750;-104.894;2023-03-20T11:29:49;82865.09;;;3.09;21.92
70437;BME280;57877;39.750;-104.894;2023-03-20T11:32:21;82865.09;;;2.91;21.82
70437;BME280;57877;39.750;-104.894;2023-03-20T11:34:39;82869.11;;;3.07;21.51
70437;BME280;57877;39.750;-104.894;2023-03-20T11:39:31;82867.45;;;2.63;22.45
70437;BME280;57877;39.750;-104.894;2023-03-20T11:41:59;82869.72;;;2.59;22.27
70437;BME280;57877;39.750;-104.894;2023-03-20T11:44:27;82870.16;;;2.77;22.00
70437;BME280;57877;39.750;-104.894;2023-03-20T11:46:54;82869.93;;;2.37;22.98
70437;BME280;57877;39.750;-104.894;2023-03-20T11:49:20;82870.39;;;3.15;22.33
70437;BME280;57877;39.750;-104.894;2023-03-20T11:51:40;82870.66;;;3.24;21.97
70437;BME280;57877;39.750;-104.894;2023-03-20T11:54:12;82873.28;;;1.73;23.72
70437;BME280;57877;39.750;-104.894;2023-03-20T11:56:33;82871.24;;;2.63;23.22
70437;BME280;57877;39.750;-104.894;2023-03-20T11:59:02;82868.41;;;3.21;22.45
70437;BME280;57877;39.750;-104.894;2023-03-20T12:01:25;82868.42;;;2.61;23.17
70437;BME280;57877;39.750;-104.894;2023-03-20T12:03:52;82868.28;;;2.84;22.59
70437;BME280;57877;39.750;-104.894;2023-03-20T12:06:19;82870.32;;;2.49;22.89
70437;BME280;57877;39.750;-104.894;2023-03-20T12:08:47;82869.47;;;3.18;21.84
70437;BME280;57877;39.750;-104.894;2023-03-20T12:11:18;82865.27;;;0.93;24.61
70437;BME280;57877;39.750;-104.894;2023-03-20T12:13:36;82866.73;;;2.23;22.66
70437;BME280;57877;39.750;-104.894;2023-03-20T12:16:01;82870.92;;;1.95;23.75
70437;BME280;57877;39.750;-104.894;2023-03-20T12:18:27;82870.26;;;2.99;22.01
70437;BME280;57877;39.750;-104.894;2023-03-20T12:21:01;82868.28;;;2.26;23.46
70437;BME280;57877;39.750;-104.894;2023-03-20T12:23:23;82872.90;;;3.76;21.53
70437;BME280;57877;39.750;-104.894;2023-03-20T12:25:48;82868.92;;;2.05;22.61
70437;BME280;57877;39.750;-104.894;2023-03-20T12:28:16;82869.59;;;3.54;21.52
70437;BME280;57877;39.750;-104.894;2023-03-20T12:30:50;82868.95;;;2.93;22.21
70437;BME280;57877;39.750;-104.894;2023-03-20T12:33:06;82868.67;;;3.61;21.27
70437;BME280;57877;39.750;-104.894;2023-03-20T12:35:29;82869.69;;;3.85;20.77
70437;BME280;57877;39.750;-104.894;2023-03-20T12:37:53;82872.79;;;3.45;21.25
70437;BME280;57877;39.750;-104.894;2023-03-20T12:40:22;82869.55;;;3.79;20.60
70437;BME280;57877;39.750;-104.894;2023-03-20T12:42:54;82867.92;;;3.65;20.28
70437;BME280;57877;39.750;-104.894;2023-03-20T12:45:12;82870.95;;;3.33;21.11
70437;BME280;57877;39.750;-104.894;2023-03-20T12:50:08;82873.21;;;0.70;24.18
70437;BME280;57877;39.750;-104.894;2023-03-20T12:52:35;82877.28;;;0.64;24.50
70437;BME280;57877;39.750;-104.894;2023-03-20T12:55:03;82875.76;;;2.38;22.69
70437;BME280;57877;39.750;-104.894;2023-03-20T12:57:26;82876.16;;;2.63;22.02
70437;BME280;57877;39.750;-104.894;2023-03-20T12:59:56;82875.25;;;1.80;22.35